KOLMKTIW

Guest
Details From KOLM - OLYMPIA
To KTIW - TACOMA NARROWS
Flight Number -
Tags generated
Created
Modified
Stats Distance 22 nm / 41 km
Max Altitude 0 ft / 0 m
Waypoints 3
Social Downloads 1
Likes 0
Share VATSIM

Download

Looking for another format? Having issues loading an existing format? Contact us
Advertisement - Login to hide

Notes

Basic altitude profile: - Ascent Rate: 2500ft/min - Ascent Speed: 250kts - Cruise Altitude: 35000ft - Cruise Speed: 420kts - Descent Rate: 1500ft/min - Descent Speed: 250kts Options: - Use NATs: yes - Use PACOTS: yes - Use low airways: yes - Use high airways: yes

Route

KOLM OLM KTIW

ID Type Via Altitude (ft/m) Position (lat/lon) Dist (leg/tot) Name
O KOLM APT - 0 / 0 46.96931 / -122.90248 - / 0 nm OLYMPIA
OLM VOR - 0 / 0 46.97164 / -122.90183 0 / 0 nm OLYMPIA VORTAC
O KTIW APT - 0 / 0 47.26793 / -122.57811 22 / 22 nm TACOMA NARROWS

Altitude Profile

Advertisement - Login to hide

KOLM

Details ICAO KOLM (OLM)
Name OLYMPIA
Region United States
Timezone America/Los_Angeles (UTC-7.0)
Stats Elevation 208 ft / 63 m (AMSL)
Location 46.969500° -122.902000°
Runways 2
Magnetic Variation 15.557° E

METAR

KOLM 171104Z AUTO 00000KT 1/4SM FG VV001 02/02 A3020 RMK AO2 T00220022

Decode

TAF

KOLM 170959Z 1710/1806 00000KT 1/4SM FG VV001 TEMPO 1716/1718 5SM BR SCT001 FM171800 01004KT P6SM SKC

Decode

Departure Runways

ID Width Length Bearing (true/mag) Surface Threshold Overrun Markings Lighting
08 151 ft / 46 m 4,147 ft / 1,264 m 103.71° / 88.15° ASPHALT 0 ft / 0 m 0 ft / 0 m APP
17 151 ft / 46 m 5,503 ft / 1,677 m 191.27° / 175.71° ASPHALT 0 ft / 0 m 659 ft / 201 m PREC-APP EDGE THRESHOLD MALSR
26 151 ft / 46 m 4,147 ft / 1,264 m 283.72° / 268.16° ASPHALT 0 ft / 0 m 0 ft / 0 m APP
35 151 ft / 46 m 5,503 ft / 1,677 m 11.27° / 355.71° ASPHALT 0 ft / 0 m 0 ft / 0 m APP EDGE THRESHOLD REIL-OMNI

KTIW

Details ICAO KTIW (TIW)
Name TACOMA NARROWS
Region United States
Timezone America/Los_Angeles (UTC-7.0)
Stats Elevation 291 ft / 89 m (AMSL)
Location 47.267900° -122.578000°
Runways 1
Magnetic Variation 15.571° E

METAR

KTIW 171053Z AUTO 00000KT 10SM CLR 08/07 A3019 RMK AO2 SLP224 T00780067

Decode

TAF

Not found

Destination Runways

ID Width Length Bearing (true/mag) Surface Threshold Overrun Markings Lighting
17 150 ft / 46 m 5,004 ft / 1,525 m 186.99° / 171.42° ASPHALT 0 ft / 0 m 0 ft / 0 m PREC-APP EDGE THRESHOLD MALSR
35 150 ft / 46 m 5,004 ft / 1,525 m 6.99° / 351.42° ASPHALT 0 ft / 0 m 0 ft / 0 m APP EDGE THRESHOLD REIL-OMNI

Approach Navaids

Runway Type Ident Frequency Range Bearing (true/mag) Slope Elevation
17 MM MM - - 186.99° / 171.42 ° - 292 ft / 89 m (AMSL)
17 OM OM - - 186.99° / 171.42 ° - 292 ft / 89 m (AMSL)
17 LOC-ILS ITIW 109.10 MHz 18 nm / 33 km 186.99° / 171.42 ° - 292 ft / 89 m (AMSL)
17 GS ITIW 109.10 MHz 10 nm / 19 km 187.98° / 172.41 ° 3.00° 292 ft / 89 m (AMSL)

Popular Alternatives